sensor_id;sensor_type;location;lat;lon;timestamp;pressure;altitude;pressure_sealevel;temperature;humidity
58090;BME280;45149;50.976;6.120;2022-08-21T00:01:24;100600.31;;;15.79;100.00
58090;BME280;45149;50.976;6.120;2022-08-21T00:03:50;100594.19;;;15.84;100.00
58090;BME280;45149;50.976;6.120;2022-08-21T00:06:16;100586.69;;;15.86;100.00
58090;BME280;45149;50.976;6.120;2022-08-21T00:08:42;100579.44;;;15.86;100.00
58090;BME280;45149;50.976;6.120;2022-08-21T00:11:08;100587.66;;;15.79;100.00
58090;BME280;45149;50.976;6.120;2022-08-21T00:13:34;100577.03;;;15.73;100.00
58090;BME280;45149;50.976;6.120;2022-08-21T00:15:59;100578.38;;;15.70;100.00
58090;BME280;45149;50.976;6.120;2022-08-21T00:18:25;100572.06;;;15.65;100.00
58090;BME280;45149;50.976;6.120;2022-08-21T00:20:51;100573.97;;;15.64;100.00
58090;BME280;45149;50.976;6.120;2022-08-21T00:23:16;100569.31;;;15.59;100.00
58090;BME280;45149;50.976;6.120;2022-08-21T00:25:43;100565.75;;;15.54;100.00
58090;BME280;45149;50.976;6.120;2022-08-21T00:28:09;100572.91;;;15.48;100.00
58090;BME280;45149;50.976;6.120;2022-08-21T00:30:34;100570.41;;;15.41;100.00
58090;BME280;45149;50.976;6.120;2022-08-21T00:33:00;100569.72;;;15.34;100.00
58090;BME280;45149;50.976;6.120;2022-08-21T00:35:33;100570.00;;;15.50;100.00
58090;BME280;45149;50.976;6.120;2022-08-21T00:38:00;100560.53;;;15.47;100.00
58090;BME280;45149;50.976;6.120;2022-08-21T00:40:37;100564.50;;;15.27;100.00
58090;BME280;45149;50.976;6.120;2022-08-21T00:43:03;100565.34;;;15.28;100.00
58090;BME280;45149;50.976;6.120;2022-08-21T00:45:30;100568.72;;;15.23;100.00
58090;BME280;45149;50.976;6.120;2022-08-21T00:47:57;100562.22;;;15.19;100.00
58090;BME280;45149;50.976;6.120;2022-08-21T00:50:26;100560.91;;;15.22;100.00
58090;BME280;45149;50.976;6.120;2022-08-21T00:52:54;100566.53;;;15.20;100.00
58090;BME280;45149;50.976;6.120;2022-08-21T00:55:22;100564.50;;;15.10;100.00
58090;BME280;45149;50.976;6.120;2022-08-21T00:57:51;100560.41;;;15.08;100.00
58090;BME280;45149;50.976;6.120;2022-08-21T01:00:30;100568.72;;;15.06;100.00
58090;BME280;45149;50.976;6.120;2022-08-21T01:02:58;100561.25;;;15.08;100.00
58090;BME280;45149;50.976;6.120;2022-08-21T01:05:24;100555.28;;;15.06;100.00
58090;BME280;45149;50.976;6.120;2022-08-21T01:07:50;100563.34;;;15.06;100.00
58090;BME280;45149;50.976;6.120;2022-08-21T01:10:16;100563.53;;;15.17;100.00
58090;BME280;45149;50.976;6.120;2022-08-21T01:12:42;100564.66;;;15.04;100.00
58090;BME280;45149;50.976;6.120;2022-08-21T01:15:09;100568.06;;;14.99;100.00
58090;BME280;45149;50.976;6.120;2022-08-21T01:17:35;100560.50;;;14.96;100.00
58090;BME280;45149;50.976;6.120;2022-08-21T01:20:05;100559.00;;;14.88;100.00
58090;BME280;45149;50.976;6.120;2022-08-21T01:22:31;100557.06;;;15.01;100.00
58090;BME280;45149;50.976;6.120;2022-08-21T01:24:56;100560.00;;;14.99;100.00
58090;BME280;45149;50.976;6.120;2022-08-21T01:27:21;100556.06;;;14.90;100.00
58090;BME280;45149;50.976;6.120;2022-08-21T01:30:18;100565.22;;;15.06;100.00
58090;BME280;45149;50.976;6.120;2022-08-21T01:32:45;100556.66;;;14.92;100.00
58090;BME280;45149;50.976;6.120;2022-08-21T01:35:13;100559.34;;;14.92;100.00
58090;BME280;45149;50.976;6.120;2022-08-21T01:37:39;100567.44;;;15.09;100.00
58090;BME280;45149;50.976;6.120;2022-08-21T01:40:05;100565.78;;;15.08;100.00
58090;BME280;45149;50.976;6.120;2022-08-21T01:42:32;100563.44;;;14.94;100.00
58090;BME280;45149;50.976;6.120;2022-08-21T01:44:57;100560.63;;;14.89;100.00
58090;BME280;45149;50.976;6.120;2022-08-21T01:47:23;100574.19;;;15.11;100.00
58090;BME280;45149;50.976;6.120;2022-08-21T01:49:49;100566.13;;;14.94;100.00
58090;BME280;45149;50.976;6.120;2022-08-21T01:52:14;100558.91;;;14.83;100.00
58090;BME280;45149;50.976;6.120;2022-08-21T01:54:40;100566.50;;;14.86;100.00
58090;BME280;45149;50.976;6.120;2022-08-21T01:57:07;100558.59;;;14.80;100.00
58090;BME280;45149;50.976;6.120;2022-08-21T01:59:33;100556.06;;;14.90;100.00
58090;BME280;45149;50.976;6.120;2022-08-21T02:01:58;100561.03;;;14.81;100.00
58090;BME280;45149;50.976;6.120;2022-08-21T02:04:24;100553.25;;;14.68;100.00
58090;BME280;45149;50.976;6.120;2022-08-21T02:06:49;100554.09;;;14.56;100.00
58090;BME280;45149;50.976;6.120;2022-08-21T02:09:15;100549.09;;;14.48;100.00
58090;BME280;45149;50.976;6.120;2022-08-21T02:11:41;100559.63;;;14.38;100.00
58090;BME280;45149;50.976;6.120;2022-08-21T02:14:08;100548.69;;;14.27;100.00
58090;BME280;45149;50.976;6.120;2022-08-21T02:16:34;100552.06;;;14.35;100.00
58090;BME280;45149;50.976;6.120;2022-08-21T02:18:59;100551.56;;;14.38;100.00
58090;BME280;45149;50.976;6.120;2022-08-21T02:21:25;100549.84;;;14.32;100.00
58090;BME280;45149;50.976;6.120;2022-08-21T02:23:50;100552.66;;;14.25;100.00
58090;BME280;45149;50.976;6.120;2022-08-21T02:26:16;100549.97;;;14.25;100.00
58090;BME280;45149;50.976;6.120;2022-08-21T02:28:41;100554.41;;;14.31;100.00
58090;BME280;45149;50.976;6.120;2022-08-21T02:31:07;100558.16;;;14.30;100.00
58090;BME280;45149;50.976;6.120;2022-08-21T02:33:33;100556.41;;;14.24;100.00
58090;BME280;45149;50.976;6.120;2022-08-21T02:35:59;100555.34;;;14.25;100.00
58090;BME280;45149;50.976;6.120;2022-08-21T02:38:27;100556.75;;;14.27;100.00
58090;BME280;45149;50.976;6.120;2022-08-21T02:40:54;100555.94;;;14.27;100.00
58090;BME280;45149;50.976;6.120;2022-08-21T02:43:21;100555.34;;;14.25;100.00
58090;BME280;45149;50.976;6.120;2022-08-21T02:45:48;100554.06;;;14.27;100.00
58090;BME280;45149;50.976;6.120;2022-08-21T02:48:20;100549.16;;;14.24;100.00
58090;BME280;45149;50.976;6.120;2022-08-21T02:50:48;100557.22;;;14.24;100.00
58090;BME280;45149;50.976;6.120;2022-08-21T02:53:15;100559.00;;;14.19;100.00
58090;BME280;45149;50.976;6.120;2022-08-21T02:55:45;100552.56;;;14.20;100.00
58090;BME280;45149;50.976;6.120;2022-08-21T02:58:13;100555.72;;;14.17;100.00
58090;BME280;45149;50.976;6.120;2022-08-21T03:00:39;100553.16;;;14.10;100.00
58090;BME280;45149;50.976;6.120;2022-08-21T03:03:04;100551.31;;;14.10;100.00
58090;BME280;45149;50.976;6.120;2022-08-21T03:05:31;100547.66;;;14.05;100.00
58090;BME280;45149;50.976;6.120;2022-08-21T03:08:02;100539.72;;;14.10;100.00
58090;BME280;45149;50.976;6.120;2022-08-21T03:10:28;100545.00;;;14.05;100.00
58090;BME280;45149;50.976;6.120;2022-08-21T03:12:54;100543.03;;;14.00;100.00
58090;BME280;45149;50.976;6.120;2022-08-21T03:15:22;100536.38;;;14.03;100.00
58090;BME280;45149;50.976;6.120;2022-08-21T03:17:50;100538.69;;;13.99;100.00
58090;BME280;45149;50.976;6.120;2022-08-21T03:20:18;100538.38;;;13.96;100.00
58090;BME280;45149;50.976;6.120;2022-08-21T03:22:45;100539.66;;;13.93;100.00
58090;BME280;45149;50.976;6.120;2022-08-21T03:25:11;100538.25;;;13.90;100.00
58090;BME280;45149;50.976;6.120;2022-08-21T03:27:37;100539.41;;;13.95;100.00
58090;BME280;45149;50.976;6.120;2022-08-21T03:30:05;100535.44;;;13.97;100.00
58090;BME280;45149;50.976;6.120;2022-08-21T03:32:31;100542.09;;;13.95;100.00
58090;BME280;45149;50.976;6.120;2022-08-21T03:34:56;100541.75;;;13.91;100.00
58090;BME280;45149;50.976;6.120;2022-08-21T03:37:22;100536.28;;;13.86;100.00
58090;BME280;45149;50.976;6.120;2022-08-21T03:39:49;100543.53;;;13.73;100.00
58090;BME280;45149;50.976;6.120;2022-08-21T03:42:15;100547.03;;;13.74;100.00
58090;BME280;45149;50.976;6.120;2022-08-21T03:44:41;100549.13;;;13.72;100.00
58090;BME280;45149;50.976;6.120;2022-08-21T03:47:06;100555.19;;;13.67;100.00
58090;BME280;45149;50.976;6.120;2022-08-21T03:49:32;100554.63;;;13.65;100.00
58090;BME280;45149;50.976;6.120;2022-08-21T03:51:58;100557.19;;;13.72;100.00
58090;BME280;45149;50.976;6.120;2022-08-21T03:54:24;100554.47;;;13.84;100.00
58090;BME280;45149;50.976;6.120;2022-08-21T03:56:50;100565.69;;;13.81;100.00
58090;BME280;45149;50.976;6.120;2022-08-21T03:59:15;100559.59;;;13.85;100.00
58090;BME280;45149;50.976;6.120;2022-08-21T04:01:57;100558.91;;;13.78;100.00
58090;BME280;45149;50.976;6.120;2022-08-21T04:04:24;100562.91;;;13.64;100.00
58090;BME280;45149;50.976;6.120;2022-08-21T04:06:50;100566.03;;;13.72;100.00
58090;BME280;45149;50.976;6.120;2022-08-21T04:09:16;100564.06;;;13.80;100.00
58090;BME280;45149;50.976;6.120;2022-08-21T04:11:41;100572.00;;;13.86;100.00
58090;BME280;45149;50.976;6.120;2022-08-21T04:14:07;100572.94;;;13.80;100.00
58090;BME280;45149;50.976;6.120;2022-08-21T04:16:32;100570.47;;;13.79;100.00
58090;BME280;45149;50.976;6.120;2022-08-21T04:18:57;100570.59;;;13.72;100.00
58090;BME280;45149;50.976;6.120;2022-08-21T04:21:23;100575.38;;;13.70;100.00
58090;BME280;45149;50.976;6.120;2022-08-21T04:23:48;100570.00;;;13.58;100.00
58090;BME280;45149;50.976;6.120;2022-08-21T04:26:14;100574.22;;;13.66;100.00
58090;BME280;45149;50.976;6.120;2022-08-21T04:28:39;100570.22;;;13.56;100.00
58090;BME280;45149;50.976;6.120;2022-08-21T04:31:04;100566.75;;;13.56;100.00
58090;BME280;45149;50.976;6.120;2022-08-21T04:33:30;100575.38;;;13.46;100.00
58090;BME280;45149;50.976;6.120;2022-08-21T04:35:55;100571.50;;;13.42;100.00
58090;BME280;45149;50.976;6.120;2022-08-21T04:38:21;100571.97;;;13.39;100.00
58090;BME280;45149;50.976;6.120;2022-08-21T04:40:47;100576.97;;;13.35;100.00
58090;BME280;45149;50.976;6.120;2022-08-21T04:43:14;100570.41;;;13.31;100.00
58090;BME280;45149;50.976;6.120;2022-08-21T04:45:42;100575.69;;;13.38;100.00
58090;BME280;45149;50.976;6.120;2022-08-21T04:48:11;100568.84;;;13.42;100.00
58090;BME280;45149;50.976;6.120;2022-08-21T04:53:11;100572.22;;;13.49;100.00
58090;BME280;45149;50.976;6.120;2022-08-21T04:55:39;100563.78;;;13.46;100.00
58090;BME280;45149;50.976;6.120;2022-08-21T04:58:08;100566.63;;;13.51;100.00
58090;BME280;45149;50.976;6.120;2022-08-21T05:00:36;100567.88;;;13.48;100.00
58090;BME280;45149;50.976;6.120;2022-08-21T05:03:03;100570.00;;;13.46;100.00
58090;BME280;45149;50.976;6.120;2022-08-21T05:05:30;100572.44;;;13.48;100.00
58090;BME280;45149;50.976;6.120;2022-08-21T05:07:57;100576.06;;;13.53;100.00
58090;BME280;45149;50.976;6.120;2022-08-21T05:10:23;100579.91;;;13.57;100.00
58090;BME280;45149;50.976;6.120;2022-08-21T05:12:49;100577.38;;;13.63;100.00
58090;BME280;45149;50.976;6.120;2022-08-21T05:15:14;100579.94;;;13.69;100.00
58090;BME280;45149;50.976;6.120;2022-08-21T05:17:41;100571.88;;;13.69;100.00
58090;BME280;45149;50.976;6.120;2022-08-21T05:20:08;100579.91;;;13.81;100.00
58090;BME280;45149;50.976;6.120;2022-08-21T05:22:33;100586.69;;;13.84;100.00
58090;BME280;45149;50.976;6.120;2022-08-21T05:24:59;100598.59;;;13.88;100.00
58090;BME280;45149;50.976;6.120;2022-08-21T05:27:24;100586.69;;;13.96;100.00
58090;BME280;45149;50.976;6.120;2022-08-21T05:29:49;100580.72;;;14.05;100.00
58090;BME280;45149;50.976;6.120;2022-08-21T05:32:15;100584.09;;;14.13;100.00
58090;BME280;45149;50.976;6.120;2022-08-21T05:34:40;100584.91;;;14.13;100.00
58090;BME280;45149;50.976;6.120;2022-08-21T05:37:06;100586.66;;;14.19;100.00
58090;BME280;45149;50.976;6.120;2022-08-21T05:39:31;100587.59;;;14.25;100.00
58090;BME280;45149;50.976;6.120;2022-08-21T05:41:57;100594.22;;;14.34;100.00
58090;BME280;45149;50.976;6.120;2022-08-21T05:44:22;100586.03;;;14.41;100.00
58090;BME280;45149;50.976;6.120;2022-08-21T05:46:47;100589.28;;;14.43;100.00
58090;BME280;45149;50.976;6.120;2022-08-21T05:49:13;100594.06;;;14.53;100.00
58090;BME280;45149;50.976;6.120;2022-08-21T05:51:41;100593.13;;;14.59;100.00
58090;BME280;45149;50.976;6.120;2022-08-21T05:54:07;100589.94;;;14.74;100.00
58090;BME280;45149;50.976;6.120;2022-08-21T05:56:33;100588.59;;;14.88;100.00
58090;BME280;45149;50.976;6.120;2022-08-21T05:58:58;100587.94;;;14.98;100.00
58090;BME280;45149;50.976;6.120;2022-08-21T06:01:24;100576.13;;;14.99;100.00
58090;BME280;45149;50.976;6.120;2022-08-21T06:03:50;100588.28;;;15.02;100.00
58090;BME280;45149;50.976;6.120;2022-08-21T06:06:15;100579.25;;;15.08;100.00
58090;BME280;45149;50.976;6.120;2022-08-21T06:08:40;100573.91;;;15.25;100.00
58090;BME280;45149;50.976;6.120;2022-08-21T06:11:07;100581.47;;;15.28;100.00
58090;BME280;45149;50.976;6.120;2022-08-21T06:13:33;100570.41;;;15.41;100.00
58090;BME280;45149;50.976;6.120;2022-08-21T06:16:07;100579.19;;;15.54;100.00
58090;BME280;45149;50.976;6.120;2022-08-21T06:18:34;100578.78;;;15.62;100.00
58090;BME280;45149;50.976;6.120;2022-08-21T06:20:59;100587.25;;;15.71;100.00
58090;BME280;45149;50.976;6.120;2022-08-21T06:23:25;100592.22;;;15.79;100.00
58090;BME280;45149;50.976;6.120;2022-08-21T06:25:50;100586.84;;;15.96;100.00
58090;BME280;45149;50.976;6.120;2022-08-21T06:28:16;100596.25;;;16.16;100.00
58090;BME280;45149;50.976;6.120;2022-08-21T06:30:41;100599.91;;;15.87;100.00
58090;BME280;45149;50.976;6.120;2022-08-21T06:33:06;100600.63;;;16.00;100.00
58090;BME280;45149;50.976;6.120;2022-08-21T06:35:32;100605.41;;;16.15;100.00
58090;BME280;45149;50.976;6.120;2022-08-21T06:37:58;100605.34;;;16.32;100.00
58090;BME280;45149;50.976;6.120;2022-08-21T06:40:26;100608.31;;;16.30;100.00
58090;BME280;45149;50.976;6.120;2022-08-21T06:42:51;100611.38;;;16.39;100.00
58090;BME280;45149;50.976;6.120;2022-08-21T06:45:17;100613.00;;;16.62;100.00
58090;BME280;45149;50.976;6.120;2022-08-21T06:47:42;100617.06;;;16.87;100.00
58090;BME280;45149;50.976;6.120;2022-08-21T06:50:08;100607.81;;;17.05;100.00
58090;BME280;45149;50.976;6.120;2022-08-21T06:52:37;100599.22;;;17.08;100.00
58090;BME280;45149;50.976;6.120;2022-08-21T06:55:05;100602.41;;;17.32;100.00
58090;BME280;45149;50.976;6.120;2022-08-21T06:57:31;100608.50;;;17.49;100.00
58090;BME280;45149;50.976;6.120;2022-08-21T06:59:56;100606.38;;;17.94;100.00
58090;BME280;45149;50.976;6.120;2022-08-21T07:02:22;100609.91;;;17.95;100.00
58090;BME280;45149;50.976;6.120;2022-08-21T07:04:47;100602.41;;;18.02;100.00
58090;BME280;45149;50.976;6.120;2022-08-21T07:07:13;100605.38;;;18.06;100.00
58090;BME280;45149;50.976;6.120;2022-08-21T07:09:38;100603.28;;;18.18;100.00
58090;BME280;45149;50.976;6.120;2022-08-21T07:12:04;100604.31;;;18.75;100.00
58090;BME280;45149;50.976;6.120;2022-08-21T07:14:30;100607.38;;;18.94;100.00
58090;BME280;45149;50.976;6.120;2022-08-21T07:16:55;100606.03;;;18.97;100.00
58090;BME280;45149;50.976;6.120;2022-08-21T07:19:21;100609.66;;;18.55;100.00
58090;BME280;45149;50.976;6.120;2022-08-21T07:21:46;100619.22;;;18.83;100.00
58090;BME280;45149;50.976;6.120;2022-08-21T07:24:12;100620.00;;;18.78;100.00
58090;BME280;45149;50.976;6.120;2022-08-21T07:26:37;100616.47;;;18.73;100.00
58090;BME280;45149;50.976;6.120;2022-08-21T07:29:04;100611.69;;;19.00;100.00
58090;BME280;45149;50.976;6.120;2022-08-21T07:31:29;100614.66;;;18.99;100.00
58090;BME280;45149;50.976;6.120;2022-08-21T07:33:55;100618.25;;;19.35;100.00
58090;BME280;45149;50.976;6.120;2022-08-21T07:36:21;100621.47;;;19.38;100.00
58090;BME280;45149;50.976;6.120;2022-08-21T07:38:46;100619.06;;;19.67;100.00
58090;BME280;45149;50.976;6.120;2022-08-21T07:41:23;100617.94;;;19.83;100.00
58090;BME280;45149;50.976;6.120;2022-08-21T07:43:49;100610.38;;;19.85;100.00
58090;BME280;45149;50.976;6.120;2022-08-21T07:46:14;100629.22;;;20.32;100.00
58090;BME280;45149;50.976;6.120;2022-08-21T07:48:40;100611.91;;;20.12;100.00
58090;BME280;45149;50.976;6.120;2022-08-21T07:51:08;100608.63;;;20.31;100.00
58090;BME280;45149;50.976;6.120;2022-08-21T07:53:35;100611.75;;;20.69;100.00
58090;BME280;45149;50.976;6.120;2022-08-21T07:56:01;100610.66;;;20.65;100.00
58090;BME280;45149;50.976;6.120;2022-08-21T07:58:27;100604.91;;;20.72;100.00
58090;BME280;45149;50.976;6.120;2022-08-21T08:00:52;100601.16;;;20.62;100.00
58090;BME280;45149;50.976;6.120;2022-08-21T08:03:18;100599.72;;;20.85;100.00
58090;BME280;45149;50.976;6.120;2022-08-21T08:05:43;100600.41;;;21.01;100.00
58090;BME280;45149;50.976;6.120;2022-08-21T08:08:08;100598.75;;;21.06;100.00
58090;BME280;45149;50.976;6.120;2022-08-21T08:10:35;100590.91;;;21.97;100.00
58090;BME280;45149;50.976;6.120;2022-08-21T08:13:00;100591.91;;;21.48;100.00
58090;BME280;45149;50.976;6.120;2022-08-21T08:15:27;100600.94;;;21.38;100.00
58090;BME280;45149;50.976;6.120;2022-08-21T08:17:53;100597.09;;;22.03;100.00
58090;BME280;45149;50.976;6.120;2022-08-21T08:20:20;100593.66;;;23.36;100.00
58090;BME280;45149;50.976;6.120;2022-08-21T08:22:46;100589.22;;;23.87;100.00
58090;BME280;45149;50.976;6.120;2022-08-21T08:25:13;100594.28;;;24.21;100.00
58090;BME280;45149;50.976;6.120;2022-08-21T08:27:39;100611.03;;;25.30;100.00
58090;BME280;45149;50.976;6.120;2022-08-21T08:30:06;100610.00;;;24.80;100.00
58090;BME280;45149;50.976;6.120;2022-08-21T08:32:32;100604.31;;;23.98;100.00
58090;BME280;45149;50.976;6.120;2022-08-21T08:34:58;100607.50;;;25.06;100.00
58090;BME280;45149;50.976;6.120;2022-08-21T08:37:24;100588.00;;;23.65;100.00
58090;BME280;45149;50.976;6.120;2022-08-21T08:39:50;100583.97;;;24.32;100.00
58090;BME280;45149;50.976;6.120;2022-08-21T08:42:24;100591.44;;;23.85;100.00
58090;BME280;45149;50.976;6.120;2022-08-21T08:44:59;100580.38;;;23.15;100.00
58090;BME280;45149;50.976;6.120;2022-08-21T08:47:26;100581.47;;;24.36;100.00
58090;BME280;45149;50.976;6.120;2022-08-21T08:50:41;100590.28;;;25.29;98.17
58090;BME280;45149;50.976;6.120;2022-08-21T08:53:16;100586.31;;;25.98;91.17
58090;BME280;45149;50.976;6.120;2022-08-21T08:55:44;100597.50;;;26.76;84.64
58090;BME280;45149;50.976;6.120;2022-08-21T08:58:19;100587.66;;;27.75;78.41
58090;BME280;45149;50.976;6.120;2022-08-21T09:00:49;100589.69;;;27.31;78.06
58090;BME280;45149;50.976;6.120;2022-08-21T09:03:15;100585.50;;;27.34;77.31
58090;BME280;45149;50.976;6.120;2022-08-21T09:05:48;100583.50;;;27.69;75.40
58090;BME280;45149;50.976;6.120;2022-08-21T09:11:02;100578.59;;;24.91;97.74
58090;BME280;45149;50.976;6.120;2022-08-21T09:13:46;100580.31;;;26.36;83.02
58090;BME280;45149;50.976;6.120;2022-08-21T09:16:24;100582.22;;;26.26;84.82
58090;BME280;45149;50.976;6.120;2022-08-21T09:19:08;100584.97;;;25.77;84.86
58090;BME280;45149;50.976;6.120;2022-08-21T09:25:12;100576.31;;;26.51;83.84
58090;BME280;45149;50.976;6.120;2022-08-21T09:27:40;100575.00;;;26.31;82.22
58090;BME280;45149;50.976;6.120;2022-08-21T09:30:06;100577.16;;;26.60;79.48
58090;BME280;45149;50.976;6.120;2022-08-21T09:32:34;100583.41;;;27.39;75.14
58090;BME280;45149;50.976;6.120;2022-08-21T09:35:16;100578.13;;;27.17;75.50
58090;BME280;45149;50.976;6.120;2022-08-21T09:37:53;100584.78;;;27.72;73.26
58090;BME280;45149;50.976;6.120;2022-08-21T09:40:40;100582.16;;;26.84;76.82
58090;BME280;45149;50.976;6.120;2022-08-21T09:43:20;100572.91;;;26.19;80.04
58090;BME280;45149;50.976;6.120;2022-08-21T09:45:49;100572.97;;;27.15;78.70
58090;BME280;45149;50.976;6.120;2022-08-21T09:48:23;100571.13;;;27.54;78.34
58090;BME280;45149;50.976;6.120;2022-08-21T09:50:51;100571.53;;;27.74;72.42
58090;BME280;45149;50.976;6.120;2022-08-21T09:53:26;100566.25;;;26.11;77.21
58090;BME280;45149;50.976;6.120;2022-08-21T09:56:17;100561.47;;;26.25;77.85
58090;BME280;45149;50.976;6.120;2022-08-21T09:59:33;100553.97;;;26.00;77.44
58090;BME280;45149;50.976;6.120;2022-08-21T10:02:00;100560.97;;;26.23;77.82
58090;BME280;45149;50.976;6.120;2022-08-21T10:04:33;100557.44;;;27.28;74.97
58090;BME280;45149;50.976;6.120;2022-08-21T10:07:11;100559.56;;;26.52;73.75
58090;BME280;45149;50.976;6.120;2022-08-21T10:09:37;100559.31;;;26.89;75.54
58090;BME280;45149;50.976;6.120;2022-08-21T10:17:26;100553.75;;;27.41;74.68
58090;BME280;45149;50.976;6.120;2022-08-21T10:20:03;100560.44;;;28.93;67.55
58090;BME280;45149;50.976;6.120;2022-08-21T10:22:32;100564.06;;;28.43;64.60
58090;BME280;45149;50.976;6.120;2022-08-21T10:25:19;100562.50;;;28.12;65.76
58090;BME280;45149;50.976;6.120;2022-08-21T10:27:56;100562.88;;;27.93;67.79
58090;BME280;45149;50.976;6.120;2022-08-21T10:30:52;100560.13;;;28.02;66.89
58090;BME280;45149;50.976;6.120;2022-08-21T10:33:47;100562.75;;;27.33;66.66
58090;BME280;45149;50.976;6.120;2022-08-21T10:36:21;100555.81;;;27.44;65.33
58090;BME280;45149;50.976;6.120;2022-08-21T10:38:56;100561.06;;;28.06;63.41
58090;BME280;45149;50.976;6.120;2022-08-21T10:44:55;100548.34;;;28.01;63.26
58090;BME280;45149;50.976;6.120;2022-08-21T10:47:32;100545.31;;;27.55;63.88
58090;BME280;45149;50.976;6.120;2022-08-21T10:55:41;100553.81;;;28.73;60.71
58090;BME280;45149;50.976;6.120;2022-08-21T10:58:11;100557.84;;;28.55;60.77
58090;BME280;45149;50.976;6.120;2022-08-21T11:00:47;100556.50;;;29.61;61.83
58090;BME280;45149;50.976;6.120;2022-08-21T11:03:33;100551.16;;;29.90;56.71
58090;BME280;45149;50.976;6.120;2022-08-21T11:06:05;100545.28;;;29.08;56.84
58090;BME280;45149;50.976;6.120;2022-08-21T11:08:45;100549.97;;;28.23;60.27
58090;BME280;45149;50.976;6.120;2022-08-21T11:11:26;100555.25;;;28.07;58.51
58090;BME280;45149;50.976;6.120;2022-08-21T11:14:17;100546.53;;;28.05;60.83
58090;BME280;45149;50.976;6.120;2022-08-21T11:17:02;100555.03;;;29.18;57.94
58090;BME280;45149;50.976;6.120;2022-08-21T11:19:40;100551.94;;;28.44;57.13
58090;BME280;45149;50.976;6.120;2022-08-21T11:22:18;100552.44;;;28.67;56.28
58090;BME280;45149;50.976;6.120;2022-08-21T11:25:21;100554.41;;;28.67;58.25
58090;BME280;45149;50.976;6.120;2022-08-21T11:27:56;100551.00;;;30.23;53.36
58090;BME280;45149;50.976;6.120;2022-08-21T11:30:28;100548.56;;;29.35;53.33
58090;BME280;45149;50.976;6.120;2022-08-21T11:35:30;100544.78;;;29.06;56.61
58090;BME280;45149;50.976;6.120;2022-08-21T11:48:59;100540.47;;;29.63;54.93
58090;BME280;45149;50.976;6.120;2022-08-21T11:54:07;100537.91;;;30.32;53.67
58090;BME280;45149;50.976;6.120;2022-08-21T11:56:45;100537.13;;;30.44;53.57
58090;BME280;45149;50.976;6.120;2022-08-21T11:59:19;100532.66;;;29.07;53.71
58090;BME280;45149;50.976;6.120;2022-08-21T12:01:48;100524.41;;;29.07;55.94
58090;BME280;45149;50.976;6.120;2022-08-21T12:04:22;100528.06;;;29.57;53.29
58090;BME280;45149;50.976;6.120;2022-08-21T12:06:49;100527.06;;;29.62;53.33
58090;BME280;45149;50.976;6.120;2022-08-21T12:12:00;100524.44;;;30.56;52.57
58090;BME280;45149;50.976;6.120;2022-08-21T12:14:45;100530.97;;;29.86;52.01
58090;BME280;45149;50.976;6.120;2022-08-21T12:17:35;100527.16;;;30.15;50.30
58090;BME280;45149;50.976;6.120;2022-08-21T12:20:16;100534.81;;;30.34;49.35
58090;BME280;45149;50.976;6.120;2022-08-21T12:22:49;100543.09;;;30.75;49.15
58090;BME280;45149;50.976;6.120;2022-08-21T12:25:19;100528.88;;;31.17;48.64
58090;BME280;45149;50.976;6.120;2022-08-21T12:27:47;100526.84;;;31.46;46.84
58090;BME280;45149;50.976;6.120;2022-08-21T12:30:34;100537.09;;;31.45;47.80
58090;BME280;45149;50.976;6.120;2022-08-21T12:33:04;100528.81;;;31.77;46.74
58090;BME280;45149;50.976;6.120;2022-08-21T12:35:39;100525.25;;;31.45;47.48
58090;BME280;45149;50.976;6.120;2022-08-21T12:38:27;100523.91;;;31.07;47.40
58090;BME280;45149;50.976;6.120;2022-08-21T12:40:57;100521.34;;;31.02;49.38
58090;BME280;45149;50.976;6.120;2022-08-21T12:43:38;100524.69;;;31.07;46.32
58090;BME280;45149;50.976;6.120;2022-08-21T12:46:06;100530.44;;;31.02;45.28
58090;BME280;45149;50.976;6.120;2022-08-21T12:53:44;100526.75;;;31.26;43.79
58090;BME280;45149;50.976;6.120;2022-08-21T12:56:14;100528.41;;;30.71;44.56
58090;BME280;45149;50.976;6.120;2022-08-21T12:58:44;100523.63;;;30.55;44.50
58090;BME280;45149;50.976;6.120;2022-08-21T13:01:37;100523.59;;;30.27;45.47
58090;BME280;45149;50.976;6.120;2022-08-21T13:04:09;100522.19;;;30.74;43.37
58090;BME280;45149;50.976;6.120;2022-08-21T13:06:41;100524.41;;;30.68;40.12
58090;BME280;45149;50.976;6.120;2022-08-21T13:09:12;100529.25;;;31.31;41.99
58090;BME280;45149;50.976;6.120;2022-08-21T13:11:40;100520.72;;;30.92;41.63
58090;BME280;45149;50.976;6.120;2022-08-21T13:16:54;100516.06;;;29.62;44.48
58090;BME280;45149;50.976;6.120;2022-08-21T13:19:21;100515.56;;;29.47;43.90
58090;BME280;45149;50.976;6.120;2022-08-21T13:21:47;100516.16;;;29.78;42.98
58090;BME280;45149;50.976;6.120;2022-08-21T13:24:30;100506.88;;;30.07;42.44
58090;BME280;45149;50.976;6.120;2022-08-21T13:26:57;100504.75;;;30.29;42.75
58090;BME280;45149;50.976;6.120;2022-08-21T13:29:28;100510.03;;;30.91;42.87
58090;BME280;45149;50.976;6.120;2022-08-21T13:31:56;100515.00;;;30.16;43.84
58090;BME280;45149;50.976;6.120;2022-08-21T13:34:24;100511.22;;;29.96;41.19
58090;BME280;45149;50.976;6.120;2022-08-21T13:36:52;100505.06;;;30.80;41.11
58090;BME280;45149;50.976;6.120;2022-08-21T13:39:20;100505.69;;;30.21;40.80
58090;BME280;45149;50.976;6.120;2022-08-21T13:41:48;100505.91;;;30.69;39.84
58090;BME280;45149;50.976;6.120;2022-08-21T13:44:22;100498.72;;;29.98;42.50